Time;durP1;ratioP1;P1;durP2;ratioP2;P2;SDS_P1;SDS_P2;PMS_P1;PMS_P2;Temp;Humidity;BMP_temperature;BMP_pressure;BME280_temperature;BME280_humidity;BME280_pressure;Samples;Min_cycle;Max_cycle;Signal;HPM_P1;HPM_P2
2023/06/09 00:00:30;;;;;;;5.43;2.33;;;;;;;20.62;62.17;98755.78;6128760;23;20536;-91
2023/06/09 00:02:59;;;;;;;7.53;2.07;;;;;;;20.61;61.92;98748.78;6127992;23;20152;-90
2023/06/09 00:05:32;;;;;;;4.13;2.23;;;;;;;20.58;61.94;98757.91;6126734;23;20160;-90
2023/06/09 00:08:03;;;;;;;5.80;2.40;;;;;;;20.59;61.63;98759.59;6128733;23;20132;-90
2023/06/09 00:10:30;;;;;;;5.23;2.30;;;;;;;20.51;62.29;98753.34;6127879;23;20447;-90
2023/06/09 00:12:57;;;;;;;5.27;2.17;;;;;;;20.52;62.13;98755.03;6126850;23;20195;-90
2023/06/09 00:15:23;;;;;;;6.30;2.03;;;;;;;20.51;62.08;98745.38;6128509;23;20151;-90
2023/06/09 00:17:54;;;;;;;5.17;2.03;;;;;;;20.54;62.29;98747.72;6126536;23;20286;-91
2023/06/09 00:20:21;;;;;;;3.17;1.63;;;;;;;20.57;62.16;98747.44;6126650;23;20152;-90
2023/06/09 00:22:48;;;;;;;3.80;2.10;;;;;;;20.57;61.81;98742.09;6126978;23;20218;-90
2023/06/09 00:25:15;;;;;;;5.43;1.90;;;;;;;20.52;61.79;98745.19;6126618;23;20194;-90
2023/06/09 00:27:43;;;;;;;5.73;1.80;;;;;;;20.52;61.94;98741.72;6126984;23;20156;-91
2023/06/09 00:30:18;;;;;;;8.20;2.47;;;;;;;20.42;62.29;98738.28;6127176;23;20175;-90
2023/06/09 00:32:45;;;;;;;5.97;2.10;;;;;;;20.45;62.06;98735.31;6126441;23;20258;-91
2023/06/09 00:35:20;;;;;;;5.37;2.17;;;;;;;20.41;62.20;98733.97;6128304;23;20210;-92
2023/06/09 00:37:48;;;;;;;5.53;2.10;;;;;;;20.40;61.89;98733.13;6128551;23;20140;-90
2023/06/09 00:40:26;;;;;;;5.47;2.07;;;;;;;20.32;62.41;98740.19;6127444;23;20583;-91
2023/06/09 00:43:04;;;;;;;4.30;2.00;;;;;;;20.23;62.69;98737.44;6126594;23;20147;-90
2023/06/09 00:45:31;;;;;;;5.10;1.90;;;;;;;20.19;62.70;98741.38;6127478;23;20143;-91
2023/06/09 00:47:56;;;;;;;5.30;2.60;;;;;;;20.17;62.97;98751.34;6127926;23;20156;-91
2023/06/09 00:50:22;;;;;;;2.93;1.70;;;;;;;20.18;62.74;98741.50;6126351;23;20155;-90
2023/06/09 00:52:51;;;;;;;3.93;2.10;;;;;;;20.14;62.71;98746.31;6126327;23;20211;-91
2023/06/09 00:55:25;;;;;;;4.63;2.10;;;;;;;20.09;62.58;98737.09;6127582;23;20155;-90
2023/06/09 00:57:55;;;;;;;7.07;2.30;;;;;;;20.03;62.46;98735.03;6126367;23;20144;-91
2023/06/09 01:00:30;;;;;;;8.13;2.50;;;;;;;19.98;62.61;98746.13;6126301;23;20152;-90
2023/06/09 01:03:04;;;;;;;4.10;1.97;;;;;;;19.96;62.77;98741.94;6126551;23;20635;-91
2023/06/09 01:05:37;;;;;;;5.87;2.43;;;;;;;19.89;63.03;98747.00;6126215;23;20619;-91
2023/06/09 01:08:15;;;;;;;4.87;2.00;;;;;;;19.80;63.26;98747.91;6126173;23;20160;-90
2023/06/09 01:11:00;;;;;;;4.20;1.93;;;;;;;19.75;63.52;98744.84;6127799;23;20155;-91
2023/06/09 01:14:03;;;;;;;3.20;1.70;;;;;;;19.64;64.15;98745.03;6126464;23;20167;-92
2023/06/09 01:17:09;;;;;;;3.97;1.97;;;;;;;19.60;64.32;98746.31;6127937;23;20147;-91
2023/06/09 01:19:57;;;;;;;5.27;2.40;;;;;;;19.60;64.14;98746.31;6111168;23;20155;-90
2023/06/09 01:22:48;;;;;;;4.40;2.20;;;;;;;19.61;63.95;98746.16;6126605;23;20468;-91
2023/06/09 01:25:28;;;;;;;4.07;2.23;;;;;;;19.63;64.37;98748.66;6128519;23;20195;-91
2023/06/09 01:28:30;;;;;;;;;;;;;;;;;;;;;
2023/06/09 01:31:27;;;;;;;;;;;;;;;;;;;;;
2023/06/09 01:34:04;;;;;;;6.03;1.90;;;;;;;19.66;63.75;98728.91;6127077;23;20218;-91
2023/06/09 01:36:32;;;;;;;5.67;2.40;;;;;;;19.58;64.27;98730.50;6127316;23;20644;-90
2023/06/09 01:39:08;;;;;;;2.87;1.60;;;;;;;19.57;64.29;98735.97;6126001;23;20181;-90
2023/06/09 01:41:39;;;;;;;4.90;1.87;;;;;;;19.49;64.95;98727.91;6125943;23;20144;-91
2023/06/09 01:44:07;;;;;;;5.77;2.37;;;;;;;19.37;65.68;98723.69;6126161;23;20231;-90
2023/06/09 01:46:35;;;;;;;4.00;1.93;;;;;;;19.43;64.98;98723.16;6125881;23;20163;-91
2023/06/09 01:49:21;;;;;;;4.63;2.13;;;;;;;19.46;64.81;98723.72;6126258;23;20151;-91
2023/06/09 01:52:01;;;;;;;4.27;2.30;;;;;;;19.43;64.45;98731.13;6126703;23;20175;-90
2023/06/09 01:55:02;;;;;;;3.80;2.07;;;;;;;19.37;64.88;98739.66;6125700;23;20238;-90
2023/06/09 01:57:39;;;;;;;5.90;2.33;;;;;;;19.37;64.81;98739.66;6121415;23;20166;-90
2023/06/09 02:00:07;;;;;;;3.90;1.93;;;;;;;19.37;64.78;98734.34;6126848;23;20152;-89
2023/06/09 02:02:36;;;;;;;4.07;2.47;;;;;;;19.37;64.53;98729.00;6126001;23;20194;-90
2023/06/09 02:05:07;;;;;;;5.77;2.83;;;;;;;19.38;64.72;98736.06;6125520;23;20459;-90
2023/06/09 02:07:35;;;;;;;5.67;2.43;;;;;;;19.38;64.68;98738.72;6125673;23;20186;-90
2023/06/09 02:10:03;;;;;;;4.13;2.50;;;;;;;19.36;64.87;98735.34;6125724;23;20230;-90
2023/06/09 02:12:38;;;;;;;4.67;2.10;;;;;;;19.30;65.00;98739.41;6127056;23;20179;-90
2023/06/09 02:15:09;;;;;;;4.57;2.33;;;;;;;19.30;65.00;98743.88;6126956;23;20174;-91
2023/06/09 02:17:42;;;;;;;3.57;2.10;;;;;;;19.26;65.06;98743.31;6125974;23;20173;-90
2023/06/09 02:20:19;;;;;;;4.43;2.60;;;;;;;19.19;65.32;98752.00;6127041;23;20139;-90
2023/06/09 02:22:46;;;;;;;4.93;2.30;;;;;;;19.12;65.87;98745.59;6126050;23;20545;-91
2023/06/09 02:25:32;;;;;;;;;;;;;;;;;;;;;
2023/06/09 02:28:05;;;;;;;5.93;2.30;;;;;;;19.17;65.56;98751.31;6127675;23;20215;-90
2023/06/09 02:30:45;;;;;;;4.10;2.43;;;;;;;19.18;65.56;98747.69;6127392;23;20136;-90
2023/06/09 02:33:24;;;;;;;;;;;;;;;;;;;;;
2023/06/09 02:35:55;;;;;;;6.10;2.20;;;;;;;19.16;65.46;98747.81;6127284;23;20219;-90
2023/06/09 02:38:31;;;;;;;6.23;2.30;;;;;;;19.16;64.95;98752.28;6127289;23;20139;-91
2023/06/09 02:40:59;;;;;;;5.43;2.40;;;;;;;19.08;65.42;98754.84;6125203;23;20159;-91
2023/06/09 02:43:57;;;;;;;4.03;2.23;;;;;;;19.10;65.59;98758.22;6125388;23;20156;-90
2023/06/09 02:46:36;;;;;;;;;;;;;;;;;;;;;
2023/06/09 02:49:04;;;;;;;4.57;2.00;;;;;;;19.18;65.40;98753.81;6126912;23;20235;-91
2023/06/09 02:51:36;;;;;;;4.67;1.77;;;;;;;19.14;65.90;98759.56;6126548;23;20183;-90
2023/06/09 02:54:05;;;;;;;6.60;2.37;;;;;;;19.16;65.81;98760.25;6125390;23;20147;-91
2023/06/09 02:56:42;;;;;;;;;;;;;;;;;;;;;
2023/06/09 02:59:13;;;;;;;5.57;2.17;;;;;;;19.08;66.35;98768.16;6127475;23;20592;-91
2023/06/09 03:01:42;;;;;;;6.20;2.50;;;;;;;19.01;66.38;98775.81;6126583;23;20518;-91
2023/06/09 03:04:09;;;;;;;4.30;2.57;;;;;;;18.94;66.59;98774.72;6124999;23;20158;-91
2023/06/09 03:06:37;;;;;;;6.57;3.03;;;;;;;18.89;66.69;98767.16;6126336;23;20246;-91
2023/06/09 03:09:04;;;;;;;5.30;2.60;;;;;;;18.91;66.68;98772.34;6126993;23;20150;-91
2023/06/09 03:11:40;;;;;;;4.20;2.30;;;;;;;18.94;66.35;98780.88;6126813;23;20182;-90
2023/06/09 03:14:09;;;;;;;4.80;2.50;;;;;;;18.95;66.10;98782.53;6125152;23;20159;-91
2023/06/09 03:16:38;;;;;;;5.70;2.53;;;;;;;18.90;66.32;98783.94;6125462;23;20158;-90
2023/06/09 03:19:15;;;;;;;;;;;;;;;;;;;;;
2023/06/09 03:21:48;;;;;;;7.63;3.60;;;;;;;18.91;66.23;98780.31;6126601;23;20211;-91
2023/06/09 03:24:22;;;;;;;4.77;2.80;;;;;;;18.91;66.26;98781.16;6125330;23;20554;-91
2023/06/09 03:26:57;;;;;;;7.10;2.80;;;;;;;18.90;66.25;98778.63;6125057;23;20152;-91
2023/06/09 03:29:31;;;;;;;5.33;2.67;;;;;;;18.90;66.40;98768.00;6126278;23;20147;-91
2023/06/09 03:31:58;;;;;;;8.77;3.37;;;;;;;18.94;66.18;98778.22;6126158;23;20253;-91
2023/06/09 03:34:31;;;;;;;8.03;2.97;;;;;;;18.98;66.11;98779.59;6126530;23;20153;-91
2023/06/09 03:37:04;;;;;;;7.47;3.20;;;;;;;18.98;65.98;98776.94;6127252;23;20625;-91
2023/06/09 03:39:47;;;;;;;5.83;2.70;;;;;;;19.01;66.14;98767.84;6126254;23;20132;-91
2023/06/09 03:42:33;;;;;;;3.93;2.73;;;;;;;19.08;65.97;98770.81;6127303;23;20140;-91
2023/06/09 03:45:31;;;;;;;;;;;;;;;;;;;;;
2023/06/09 03:48:47;;;;;;;;;;;;;;;;;;;;;
2023/06/09 03:51:48;;;;;;;;;;;;;;;;;;;;;
2023/06/09 03:54:16;;;;;;;8.73;3.17;;;;;;;19.11;66.74;98778.47;6126154;23;20240;-91
2023/06/09 03:56:46;;;;;;;5.63;2.63;;;;;;;19.05;66.78;98782.50;6126830;23;20162;-91
2023/06/09 03:59:14;;;;;;;4.63;2.83;;;;;;;18.99;67.09;98780.44;6126048;23;20166;-89
2023/06/09 04:01:52;;;;;;;5.17;3.07;;;;;;;19.03;66.97;98787.16;6124763;23;20599;-91
2023/06/09 04:04:25;;;;;;;9.00;3.10;;;;;;;19.08;67.12;98776.94;6126727;23;20136;-90
2023/06/09 04:06:58;;;;;;;8.50;3.00;;;;;;;19.13;67.33;98773.88;6126444;23;20148;-91
2023/06/09 04:09:46;;;;;;;5.00;3.07;;;;;;;19.21;67.57;98776.66;6126366;23;20215;-91
2023/06/09 04:12:21;;;;;;;8.30;3.03;;;;;;;19.25;67.67;98784.19;6126396;23;20163;-91
2023/06/09 04:14:48;;;;;;;6.77;3.00;;;;;;;19.25;68.08;98772.69;6125982;23;20158;-91
2023/06/09 04:17:22;;;;;;;5.33;2.83;;;;;;;19.29;68.84;98779.38;6128523;23;20180;-90
2023/06/09 04:19:49;;;;;;;8.57;3.57;;;;;;;19.39;68.55;98780.25;6127593;23;20152;-90
2023/06/09 04:22:16;;;;;;;5.57;3.20;;;;;;;19.46;68.63;98784.00;6126973;23;20158;-91
2023/06/09 04:24:43;;;;;;;7.73;3.53;;;;;;;19.51;68.90;98785.25;6127712;23;20246;-90
2023/06/09 04:27:23;;;;;;;6.47;3.60;;;;;;;19.54;69.53;98792.09;6126522;23;20156;-91
2023/06/09 04:29:50;;;;;;;5.53;3.40;;;;;;;19.63;70.03;98788.56;6126537;23;20199;-91
2023/06/09 04:32:17;;;;;;;9.77;3.20;;;;;;;19.76;70.47;98786.41;6126312;23;20603;-90
2023/06/09 04:34:45;;;;;;;5.50;3.13;;;;;;;19.87;70.86;98786.22;6126375;23;20182;-91
2023/06/09 04:37:25;;;;;;;11.57;3.80;;;;;;;20.03;70.93;98789.06;6126373;23;20155;-90
2023/06/09 04:39:50;;;;;;;11.23;3.97;;;;;;;20.16;70.84;98800.22;6127968;23;20186;-90
2023/06/09 04:42:20;;;;;;;6.27;3.87;;;;;;;20.28;70.57;98805.38;6127587;23;20572;-92
2023/06/09 04:44:47;;;;;;;8.27;3.87;;;;;;;20.35;70.34;98803.78;6127886;23;20287;-91
2023/06/09 04:47:34;;;;;;;;;;;;;;;;;;;;;
2023/06/09 04:50:15;;;;;;;5.60;3.63;;;;;;;20.55;70.37;98805.31;6127457;23;20239;-90
2023/06/09 04:52:44;;;;;;;8.93;4.57;;;;;;;20.58;70.90;98799.69;6126178;23;20494;-90
2023/06/09 04:55:13;;;;;;;6.03;4.00;;;;;;;20.70;71.00;98793.16;6126228;23;20156;-90
2023/06/09 04:57:40;;;;;;;7.13;3.23;;;;;;;20.85;70.60;98794.28;6127534;23;20156;-91
2023/06/09 05:00:16;;;;;;;7.97;3.00;;;;;;;21.07;69.93;98793.00;6127265;23;20159;-90
2023/06/09 05:02:45;;;;;;;8.17;3.80;;;;;;;21.42;68.74;98782.22;6127832;23;20143;-91
2023/06/09 05:05:12;;;;;;;5.37;1.87;;;;;;;21.69;67.50;98789.22;6128051;23;20156;-90
2023/06/09 05:07:41;;;;;;;5.70;2.10;;;;;;;21.92;64.60;98793.03;6126123;23;20542;-90
2023/06/09 05:10:12;;;;;;;3.83;1.93;;;;;;;22.09;64.56;98792.09;6127660;23;20173;-91
2023/06/09 05:12:39;;;;;;;3.63;2.03;;;;;;;22.45;62.22;98798.06;6125915;23;20674;-90
2023/06/09 05:15:07;;;;;;;3.93;2.10;;;;;;;22.79;59.72;98800.63;6126122;23;20497;-90
2023/06/09 05:17:34;;;;;;;4.53;2.17;;;;;;;23.05;58.10;98806.66;6127337;23;20159;-89
2023/06/09 05:20:04;;;;;;;7.10;1.87;;;;;;;23.13;57.27;98804.00;6127338;23;20170;-90
2023/06/09 05:22:42;;;;;;;6.77;2.43;;;;;;;23.22;58.12;98801.13;6126051;23;20155;-90
2023/06/09 05:25:16;;;;;;;2.83;1.60;;;;;;;23.27;58.13;98800.63;6127029;23;20163;-90
2023/06/09 05:27:45;;;;;;;7.60;2.03;;;;;;;23.34;57.60;98800.78;6127925;23;20132;-91
2023/06/09 05:30:12;;;;;;;4.83;1.97;;;;;;;23.28;58.26;98799.63;6125890;23;20159;-91
2023/06/09 05:33:10;;;;;;;;;;;;;;;;;;;;;
2023/06/09 05:35:41;;;;;;;7.20;1.70;;;;;;;23.31;58.30;98793.94;6127419;23;20531;-90
2023/06/09 05:38:35;;;;;;;;;;;;;;;;;;;;;
2023/06/09 05:41:21;;;;;;;4.97;2.20;;;;;;;23.32;57.02;98805.50;6126758;23;20155;-88
2023/06/09 05:43:57;;;;;;;;;;;;;;;;;;;;;
2023/06/09 05:46:51;;;;;;;5.83;2.00;;;;;;;23.36;57.15;98804.97;6126900;23;20223;-88
2023/06/09 05:49:31;;;;;;;3.87;2.27;;;;;;;23.44;57.69;98804.16;6127589;23;20146;-91
2023/06/09 05:52:07;;;;;;;;;;;;;;;;;;;;;
2023/06/09 05:54:36;;;;;;;3.87;1.87;;;;;;;23.52;58.17;98788.94;6127679;23;20210;-91
2023/06/09 05:57:40;;;;;;;;;;;;;;;;;;;;;
2023/06/09 06:00:11;;;;;;;4.10;1.87;;;;;;;23.62;58.13;98789.56;6127875;23;20219;-91
2023/06/09 06:02:42;;;;;;;4.77;2.43;;;;;;;23.57;57.69;98791.09;6127057;23;20540;-91
2023/06/09 06:05:09;;;;;;;4.47;1.80;;;;;;;23.76;55.95;98796.06;6127569;23;20562;-88
2023/06/09 06:07:36;;;;;;;6.53;1.97;;;;;;;23.80;55.30;98797.38;6125796;23;20152;-90
2023/06/09 06:10:06;;;;;;;4.50;2.33;;;;;;;23.77;57.33;98795.03;6127136;23;20152;-91
2023/06/09 06:12:40;;;;;;;4.20;1.73;;;;;;;23.87;56.43;98797.53;6125545;23;20218;-91
2023/06/09 06:15:17;;;;;;;;;;;;;;;;;;;;;
2023/06/09 06:18:05;;;;;;;4.87;1.73;;;;;;;24.04;55.21;98788.41;6126912;23;20631;-90
2023/06/09 06:30:37;;;;;;;4.00;1.80;;;;;;;24.81;52.46;98791.03;6110999;23;20194;-88
2023/06/09 06:49:01;;;;;;;;;;;;;;;;;;;;;
2023/06/09 08:31:15;;;;;;;;;;;;;;;;;;;;;
2023/06/09 08:40:45;;;;;;;4.00;1.98;;;;;;;30.65;38.31;98754.34;6042765;23;20153;-91
2023/06/09 08:51:27;;;;;;;;;;;;;;;;;;;;;
2023/06/09 09:00:21;;;;;;;;;;;;;;;;;;;;;
2023/06/09 09:02:56;;;;;;;7.18;1.55;;;;;;;31.24;37.06;98729.53;5977241;23;20227;-91
2023/06/09 09:09:00;;;;;;;;;;;;;;;;;;;;;
2023/06/09 09:11:34;;;;;;;4.07;1.17;;;;;;;31.31;33.62;98727.63;6186293;23;20319;-90
2023/06/09 09:17:44;;;;;;;;;;;;;;;;;;;;;
2023/06/09 09:21:05;;;;;;;;;;;;;;;;;;;;;
2023/06/09 09:23:50;;;;;;;3.38;1.17;;;;;;;31.46;34.43;98720.81;6179356;23;20173;-90
2023/06/09 09:26:32;;;;;;;2.80;1.00;;;;;;;31.37;34.71;98710.44;6185959;23;20578;-90
2023/06/09 09:29:46;;;;;;;4.68;1.20;;;;;;;31.63;33.40;98712.91;6186160;23;20139;-90
2023/06/09 09:32:13;;;;;;;4.00;1.55;;;;;;;31.54;33.87;98714.28;6155771;23;20195;-90
2023/06/09 09:34:46;;;;;;;4.07;1.20;;;;;;;31.52;33.86;98705.56;6130128;23;20543;-90
2023/06/09 09:37:21;;;;;;;2.85;1.17;;;;;;;31.63;34.58;98709.41;6130511;23;20158;-90
2023/06/09 09:40:07;;;;;;;;;;;;;;;;;;;;;
2023/06/09 09:42:38;;;;;;;1.75;0.85;;;;;;;31.70;33.74;98697.44;6156524;23;20635;-90
2023/06/09 09:45:09;;;;;;;4.20;1.23;;;;;;;31.45;32.91;98694.78;6155012;23;20150;-91
2023/06/09 09:47:46;;;;;;;;;;;;;;;;;;;;;
2023/06/09 09:50:24;;;;;;;2.05;1.13;;;;;;;31.96;33.48;98690.84;6156613;23;20210;-90
2023/06/09 09:52:54;;;;;;;2.88;1.08;;;;;;;31.84;32.42;98684.56;6130307;23;20626;-90
2023/06/09 09:55:49;;;;;;;3.95;0.90;;;;;;;31.93;31.76;98688.59;6154746;23;20159;-90
2023/06/09 09:58:19;;;;;;;2.92;1.00;;;;;;;31.96;31.78;98691.69;6130026;23;20151;-91
2023/06/09 10:00:56;;;;;;;4.70;1.02;;;;;;;31.99;30.81;98693.09;6156257;23;20158;-90
2023/06/09 10:03:25;;;;;;;5.93;1.55;;;;;;;32.18;32.10;98682.00;6156367;23;20135;-90
2023/06/09 10:05:54;;;;;;;4.68;1.13;;;;;;;32.43;31.73;98675.63;6130079;23;20210;-90
2023/06/09 10:08:26;;;;;;;2.13;1.13;;;;;;;32.35;32.61;98670.53;6129934;23;20165;-91
2023/06/09 10:10:56;;;;;;;5.20;1.48;;;;;;;32.40;31.97;98667.94;6153595;23;20154;-89
2023/06/09 10:13:26;;;;;;;4.03;1.30;;;;;;;32.43;31.41;98664.75;6127863;23;20203;-89
2023/06/09 10:15:52;;;;;;;3.63;1.25;;;;;;;32.27;33.72;98665.41;6153956;23;20171;-89
2023/06/09 10:18:19;;;;;;;2.63;1.00;;;;;;;32.33;33.50;98662.63;6155800;23;20194;-90
2023/06/09 10:20:50;;;;;;;3.70;1.23;;;;;;;32.48;32.18;98663.00;6155759;23;20147;-89
2023/06/09 10:23:18;;;;;;;3.40;1.33;;;;;;;32.46;31.74;98670.56;6156199;23;20142;-90
2023/06/09 10:25:49;;;;;;;2.33;1.40;;;;;;;32.58;30.61;98668.72;6130520;23;20155;-90
2023/06/09 10:28:29;;;;;;;4.10;1.05;;;;;;;32.46;31.93;98667.84;6155258;23;20194;-91
2023/06/09 10:30:56;;;;;;;2.30;1.00;;;;;;;32.46;31.81;98664.31;6147016;23;20252;-91
2023/06/09 10:33:33;;;;;;;1.83;1.02;;;;;;;32.44;29.85;98661.00;6186105;23;20169;-90
2023/06/09 10:36:18;;;;;;;;;;;;;;;;;;;;;
2023/06/09 10:38:54;;;;;;;2.15;1.05;;;;;;;32.55;29.69;98660.22;6185775;23;20209;-90
2023/06/09 10:41:31;;;;;;;1.90;1.00;;;;;;;32.75;30.78;98663.47;6159707;23;20138;-91
2023/06/09 10:44:38;;;;;;;3.75;1.40;;;;;;;32.39;30.05;98663.59;6185946;23;20542;-91
2023/06/09 10:47:40;;;;;;;;;;;;;;;;;;;;;
2023/06/09 10:50:27;;;;;;;2.92;0.98;;;;;;;32.78;29.84;98652.13;6080792;23;20629;-91
2023/06/09 10:52:58;;;;;;;3.70;1.50;;;;;;;32.93;30.89;98647.06;6185917;23;20212;-91
2023/06/09 10:55:27;;;;;;;2.72;1.02;;;;;;;33.03;31.17;98644.59;6159702;23;20698;-92
2023/06/09 10:57:55;;;;;;;2.70;1.20;;;;;;;32.76;30.90;98641.50;6159612;23;20174;-90
2023/06/09 11:00:23;;;;;;;3.10;1.25;;;;;;;32.63;31.36;98640.88;6185468;23;20178;-91
2023/06/09 11:02:55;;;;;;;3.22;1.17;;;;;;;32.68;30.88;98633.69;6159323;23;20157;-91
2023/06/09 11:05:40;;;;;;;4.18;0.80;;;;;;;32.99;32.27;98634.44;6159489;23;20153;-91
2023/06/09 11:08:07;;;;;;;4.28;1.25;;;;;;;32.66;31.78;98632.28;6159169;23;20571;-90
2023/06/09 11:10:38;;;;;;;3.33;0.98;;;;;;;32.77;31.45;98640.44;6160183;23;20214;-90
2023/06/09 11:13:40;;;;;;;2.10;1.10;;;;;;;32.94;32.02;98635.13;6185297;23;20162;-90
2023/06/09 11:16:09;;;;;;;3.03;1.20;;;;;;;33.03;31.68;98622.84;6177724;23;20169;-90
2023/06/09 11:18:38;;;;;;;3.92;1.35;;;;;;;33.31;30.09;98625.69;6159839;23;20492;-90
2023/06/09 11:21:16;;;;;;;1.80;1.10;;;;;;;33.46;30.92;98613.50;6159832;23;20526;-90
2023/06/09 11:24:01;;;;;;;2.58;1.20;;;;;;;33.56;32.07;98624.63;6185427;23;20138;-90
2023/06/09 11:26:29;;;;;;;3.20;1.33;;;;;;;33.49;30.72;98616.59;6185168;23;20139;-90
2023/06/09 11:28:55;;;;;;;2.35;1.15;;;;;;;33.61;30.99;98611.13;6159558;23;20151;-89
2023/06/09 11:31:20;;;;;;;2.92;1.25;;;;;;;33.82;30.28;98608.59;6184950;23;20253;-89
2023/06/09 11:33:53;;;;;;;2.33;1.20;;;;;;;33.81;29.63;98609.63;6185298;23;20165;-90
2023/06/09 11:36:22;;;;;;;3.55;1.48;;;;;;;33.59;29.60;98607.84;6185194;23;20582;-91
2023/06/09 11:38:50;;;;;;;1.77;0.93;;;;;;;33.60;30.81;98604.84;6159735;23;20158;-89
2023/06/09 11:41:21;;;;;;;3.80;1.55;;;;;;;33.67;28.32;98605.56;6185623;23;20142;-90
2023/06/09 11:43:50;;;;;;;2.45;1.13;;;;;;;33.65;27.99;98599.53;6185539;23;20139;-90
2023/06/09 11:46:17;;;;;;;4.47;1.33;;;;;;;33.79;30.28;98591.91;6185604;23;20150;-90
2023/06/09 11:49:06;;;;;;;3.00;1.38;;;;;;;33.92;30.10;98586.19;6185327;23;20595;-90
2023/06/09 11:51:52;;;;;;;2.78;1.30;;;;;;;33.92;29.03;98588.91;6185942;23;20205;-91
2023/06/09 11:54:18;;;;;;;2.75;1.08;;;;;;;33.77;30.06;98586.72;6159258;23;20146;-90
2023/06/09 11:56:46;;;;;;;2.63;1.23;;;;;;;33.80;28.93;98582.69;6159388;23;20151;-91
2023/06/09 11:59:16;;;;;;;2.63;1.27;;;;;;;33.71;28.98;98574.09;6160633;23;20151;-90
2023/06/09 12:01:42;;;;;;;3.15;1.67;;;;;;;33.68;26.88;98579.19;6161061;23;20150;-91
2023/06/09 12:04:09;;;;;;;3.33;1.55;;;;;;;33.48;27.47;98573.31;6160984;23;20713;-91
2023/06/09 12:06:37;;;;;;;4.30;1.83;;;;;;;33.61;28.41;98568.47;6160981;23;20591;-90
2023/06/09 12:09:22;;;;;;;3.17;1.65;;;;;;;33.66;28.93;98570.44;6187377;23;20561;-89
2023/06/09 12:11:51;;;;;;;3.60;1.33;;;;;;;33.89;28.46;98571.19;6186792;23;20606;-89
2023/06/09 12:14:16;;;;;;;3.83;1.52;;;;;;;33.96;28.08;98562.88;6161007;23;20237;-90
2023/06/09 12:16:43;;;;;;;4.30;1.45;;;;;;;34.20;27.62;98567.13;6186976;23;20643;-90
2023/06/09 12:19:09;;;;;;;2.72;1.63;;;;;;;34.22;28.13;98573.19;6186892;23;20150;-90
2023/06/09 12:21:35;;;;;;;3.15;1.30;;;;;;;34.29;27.11;98567.56;6160680;23;20157;-90
2023/06/09 12:24:02;;;;;;;4.18;1.70;;;;;;;34.47;27.11;98570.03;6187508;23;20150;-90
2023/06/09 12:26:44;;;;;;;4.30;1.80;;;;;;;34.28;27.46;98569.44;6187090;23;20578;-91
2023/06/09 12:29:11;;;;;;;2.97;1.20;;;;;;;34.18;27.65;98563.84;6160873;23;20147;-91
2023/06/09 12:31:49;;;;;;;3.67;1.67;;;;;;;34.43;27.62;98566.19;6160279;23;20194;-90
2023/06/09 12:34:29;;;;;;;4.45;1.38;;;;;;;34.62;26.39;98547.72;6187488;23;20478;-89
2023/06/09 12:36:57;;;;;;;4.47;1.77;;;;;;;34.66;25.30;98552.41;6187035;23;20451;-90
2023/06/09 12:39:30;;;;;;;4.32;1.40;;;;;;;34.71;25.98;98557.94;6187401;23;20205;-91
2023/06/09 12:41:57;;;;;;;3.53;1.55;;;;;;;34.72;26.32;98559.59;6187077;23;20140;-90
2023/06/09 12:44:25;;;;;;;4.15;1.60;;;;;;;34.76;24.16;98549.00;6186717;23;20151;-90
2023/06/09 12:46:56;;;;;;;5.53;1.95;;;;;;;34.85;24.46;98542.06;6187324;23;20638;-89
2023/06/09 12:49:32;;;;;;;4.53;2.10;;;;;;;34.45;25.31;98537.63;6187162;23;20130;-90
2023/06/09 12:51:59;;;;;;;3.47;1.80;;;;;;;34.36;25.80;98541.84;6187186;23;20181;-89
2023/06/09 12:54:30;;;;;;;3.85;1.65;;;;;;;34.36;25.98;98533.66;6160568;23;20165;-90
2023/06/09 12:56:56;;;;;;;3.53;1.63;;;;;;;33.92;25.91;98538.06;6187337;23;20189;-90
2023/06/09 12:59:24;;;;;;;4.05;1.88;;;;;;;33.63;25.99;98532.88;6186542;23;20153;-90
2023/06/09 13:01:52;;;;;;;4.82;2.10;;;;;;;33.79;26.43;98529.38;6160746;23;20158;-90
2023/06/09 13:04:20;;;;;;;5.78;2.05;;;;;;;33.82;24.39;98523.47;6186793;23;20151;-90
2023/06/09 13:06:46;;;;;;;5.50;1.42;;;;;;;33.89;24.78;98521.41;6160594;23;20158;-90
2023/06/09 13:09:13;;;;;;;8.02;2.45;;;;;;;33.94;25.16;98524.22;6160468;23;20155;-91
2023/06/09 13:11:40;;;;;;;3.45;1.75;;;;;;;33.68;23.43;98514.78;6186357;23;20170;-91
2023/06/09 13:14:06;;;;;;;4.00;1.88;;;;;;;33.91;25.67;98519.28;6186778;23;20150;-91
2023/06/09 13:16:32;;;;;;;6.97;2.00;;;;;;;33.65;24.94;98526.13;6186282;23;20196;-90
2023/06/09 13:18:59;;;;;;;4.40;2.03;;;;;;;33.80;26.20;98518.28;6186711;23;20146;-91
2023/06/09 13:21:29;;;;;;;3.80;1.80;;;;;;;33.85;27.02;98522.97;6186351;23;20563;-91
2023/06/09 13:23:56;;;;;;;3.53;1.88;;;;;;;33.91;25.15;98513.84;6186208;23;20233;-90
2023/06/09 13:26:22;;;;;;;4.00;1.67;;;;;;;34.00;24.93;98512.34;6160374;23;20162;-91
2023/06/09 13:28:49;;;;;;;4.15;1.90;;;;;;;34.03;25.55;98517.31;6186218;23;20150;-90
2023/06/09 13:31:18;;;;;;;2.42;1.38;;;;;;;34.18;25.43;98503.97;6160080;23;20666;-89
2023/06/09 13:33:44;;;;;;;5.72;1.67;;;;;;;34.26;25.62;98500.84;6160675;23;20165;-90
2023/06/09 13:36:12;;;;;;;4.22;1.95;;;;;;;34.22;25.64;98498.88;6186252;23;20146;-89
2023/06/09 13:38:39;;;;;;;4.75;1.50;;;;;;;34.41;26.94;98492.09;6160153;23;20178;-90
2023/06/09 13:41:04;;;;;;;3.42;1.80;;;;;;;34.34;26.43;98492.28;6186458;23;20147;-89
2023/06/09 13:43:30;;;;;;;2.42;1.25;;;;;;;34.36;25.39;98489.28;6160163;23;20181;-88
2023/06/09 13:45:55;;;;;;;3.65;1.90;;;;;;;34.39;24.51;98494.25;6186085;23;20492;-90
2023/06/09 13:48:20;;;;;;;3.20;1.55;;;;;;;34.53;23.76;98496.38;6161145;23;20440;-90
2023/06/09 13:50:46;;;;;;;4.75;1.63;;;;;;;34.47;23.32;98491.94;6186018;23;20481;-90
2023/06/09 13:53:11;;;;;;;3.47;1.40;;;;;;;34.52;24.24;98494.72;6185939;23;20240;-90
2023/06/09 13:55:37;;;;;;;5.00;1.73;;;;;;;34.59;23.26;98500.84;6186004;23;20151;-90
2023/06/09 13:58:02;;;;;;;3.15;1.48;;;;;;;34.65;22.41;98495.47;6186615;23;20233;-90
2023/06/09 14:00:42;;;;;;;3.83;1.63;;;;;;;34.74;21.84;98485.81;6159688;23;20196;-91
2023/06/09 14:03:09;;;;;;;2.95;1.60;;;;;;;34.72;22.68;98504.31;6185873;23;20138;-91
2023/06/09 14:05:36;;;;;;;4.22;1.63;;;;;;;34.81;22.82;98500.88;6185783;23;20217;-91
2023/06/09 14:08:03;;;;;;;2.90;1.15;;;;;;;34.81;23.60;98500.06;6186957;23;20146;-91
2023/06/09 14:10:30;;;;;;;5.88;1.55;;;;;;;34.79;23.64;98488.59;6161316;23;20154;-90
2023/06/09 14:12:59;;;;;;;2.72;1.40;;;;;;;34.77;24.35;98485.31;6159874;23;20618;-90
2023/06/09 14:15:26;;;;;;;4.47;2.05;;;;;;;34.54;23.64;98484.41;6160236;23;20240;-91
2023/06/09 14:17:53;;;;;;;3.28;1.52;;;;;;;34.45;25.09;98477.75;6185671;23;20157;-90
2023/06/09 14:20:21;;;;;;;5.10;1.88;;;;;;;34.41;24.87;98476.59;6186270;23;20150;-91
2023/06/09 14:22:47;;;;;;;4.38;1.52;;;;;;;34.29;25.09;98483.22;6185743;23;20570;-90
2023/06/09 14:25:18;;;;;;;6.10;1.80;;;;;;;34.30;25.03;98480.25;6185656;23;20162;-91
2023/06/09 14:27:46;;;;;;;3.50;1.55;;;;;;;34.11;25.33;98480.75;6185629;23;20550;-89
2023/06/09 14:30:14;;;;;;;4.47;1.65;;;;;;;33.95;26.66;98477.75;6185624;23;20598;-90
2023/06/09 14:32:47;;;;;;;4.80;1.58;;;;;;;34.11;26.23;98475.31;6159492;23;20652;-90
2023/06/09 14:35:20;;;;;;;6.78;1.10;;;;;;;34.18;26.29;98479.50;6185882;23;20134;-90
2023/06/09 14:37:51;;;;;;;2.65;1.33;;;;;;;34.32;25.32;98472.66;6186409;23;20141;-90
2023/06/09 14:40:16;;;;;;;2.63;1.50;;;;;;;34.27;25.45;98461.69;6186115;23;20139;-90
2023/06/09 14:42:45;;;;;;;2.67;1.50;;;;;;;34.41;25.53;98460.25;6159640;23;20161;-90
2023/06/09 14:45:12;;;;;;;4.03;1.65;;;;;;;34.36;25.98;98462.09;6185596;23;20146;-90
2023/06/09 14:47:39;;;;;;;5.07;1.52;;;;;;;34.40;26.57;98464.06;6185957;23;20237;-90
2023/06/09 14:50:06;;;;;;;2.80;1.23;;;;;;;34.35;27.13;98465.91;6186159;23;20146;-90
2023/06/09 14:52:35;;;;;;;3.63;1.63;;;;;;;34.30;26.34;98463.94;6185783;23;20610;-90
2023/06/09 14:55:04;;;;;;;3.03;1.33;;;;;;;34.28;26.72;98455.16;6159483;23;20236;-89
2023/06/09 14:57:29;;;;;;;3.80;1.70;;;;;;;34.27;26.23;98464.41;6185121;23;20161;-90
2023/06/09 14:59:55;;;;;;;5.25;1.50;;;;;;;34.26;25.99;98462.75;6185265;23;20233;-90
2023/06/09 15:02:20;;;;;;;2.53;1.42;;;;;;;34.33;25.86;98452.53;6184907;23;20153;-90
2023/06/09 15:04:47;;;;;;;3.53;1.75;;;;;;;34.09;27.24;98455.69;6185335;23;20154;-90
2023/06/09 15:07:14;;;;;;;2.80;1.45;;;;;;;34.02;26.23;98458.53;6159062;23;20480;-91
2023/06/09 15:09:39;;;;;;;3.78;1.50;;;;;;;34.13;26.75;98457.66;6159078;23;20154;-90
2023/06/09 15:12:05;;;;;;;3.40;1.38;;;;;;;34.18;27.36;98456.91;6185607;23;20178;-90